Time;durP1;ratioP1;P1;durP2;ratioP2;P2;SDS_P1;SDS_P2;PMS_P1;PMS_P2;Temp;Humidity;BMP_temperature;BMP_pressure;BME280_temperature;BME280_humidity;BME280_pressure;Samples;Min_cycle;Max_cycle;Signal;HPM_P1;HPM_P2
2023/07/02 00:01:15;;;;;;;3.00;1.37;;;;;;;;;;5013858;28;21002;-85
2023/07/02 00:03:41;;;;;;;3.90;1.53;;;;;;;;;;5012369;28;20176;-82
2023/07/02 00:06:07;;;;;;;2.30;2.10;;;;;;;;;;5013765;28;20180;-82
2023/07/02 00:08:33;;;;;;;2.13;1.07;;;;;;;;;;5013936;28;20181;-81
2023/07/02 00:10:59;;;;;;;3.30;1.67;;;;;;;;;;5000266;28;20230;-84
2023/07/02 00:13:25;;;;;;;4.43;0.63;;;;;;;;;;4994266;28;20181;-85
2023/07/02 00:15:51;;;;;;;4.63;2.57;;;;;;;;;;4994429;28;20211;-83
2023/07/02 00:18:17;;;;;;;3.53;1.83;;;;;;;;;;5007174;28;20459;-86
2023/07/02 00:20:43;;;;;;;5.67;1.10;;;;;;;;;;4993454;28;20217;-86
2023/07/02 00:23:09;;;;;;;5.63;1.20;;;;;;;;;;4993771;28;20421;-82
2023/07/02 00:25:35;;;;;;;3.67;1.70;;;;;;;;;;4993399;28;20428;-81
2023/07/02 00:28:07;;;;;;;4.10;1.80;;;;;;;;;;4993134;28;20430;-81
2023/07/02 00:30:36;;;;;;;2.87;2.10;;;;;;;;;;4993546;28;20435;-83
2023/07/02 00:33:02;;;;;;;4.30;1.97;;;;;;;;;;4992785;28;20435;-88
2023/07/02 00:35:33;;;;;;;3.40;2.27;;;;;;;;;;4990302;28;20521;-80
2023/07/02 00:37:59;;;;;;;5.17;1.70;;;;;;;;;;4994910;28;20456;-85
2023/07/02 00:40:24;;;;;;;4.13;2.00;;;;;;;;;;4993321;28;20893;-84
2023/07/02 00:42:50;;;;;;;2.80;1.77;;;;;;;;;;5008717;28;20180;-83
2023/07/02 00:45:16;;;;;;;5.83;2.47;;;;;;;;;;4993518;28;20623;-80
2023/07/02 00:47:42;;;;;;;5.80;3.67;;;;;;;;;;4993477;28;20180;-82
2023/07/02 00:50:09;;;;;;;2.20;1.47;;;;;;;;;;4992816;28;20427;-82
2023/07/02 00:52:35;;;;;;;4.77;2.43;;;;;;;;;;4993358;28;20840;-83
2023/07/02 00:55:01;;;;;;;5.73;2.60;;;;;;;;;;4993277;28;20418;-82
2023/07/02 00:57:29;;;;;;;2.37;1.37;;;;;;;;;;4993301;28;20454;-82
2023/07/02 00:59:55;;;;;;;10.27;2.47;;;;;;;;;;4993352;28;20472;-83
2023/07/02 01:02:25;;;;;;;5.10;1.80;;;;;;;;;;4993310;28;20417;-82
2023/07/02 01:04:57;;;;;;;5.40;2.03;;;;;;;;;;4992977;28;20615;-83
2023/07/02 01:07:23;;;;;;;3.50;1.53;;;;;;;;;;4993325;28;20760;-81
2023/07/02 01:09:49;;;;;;;7.90;1.77;;;;;;;;;;5009676;28;20471;-83
2023/07/02 01:12:17;;;;;;;3.60;1.50;;;;;;;;;;5011696;28;20428;-84
2023/07/02 01:14:44;;;;;;;4.43;2.53;;;;;;;;;;5011615;28;20509;-84
2023/07/02 01:17:11;;;;;;;4.43;1.27;;;;;;;;;;5012742;28;20413;-83
2023/07/02 01:19:43;;;;;;;4.60;2.10;;;;;;;;;;5012345;28;20823;-81
2023/07/02 01:22:10;;;;;;;3.87;1.67;;;;;;;;;;5011564;28;20451;-84
2023/07/02 01:24:39;;;;;;;2.53;2.03;;;;;;;;;;5012880;28;20405;-83
2023/07/02 01:27:05;;;;;;;5.40;2.07;;;;;;;;;;5004464;28;20428;-83
2023/07/02 01:29:31;;;;;;;8.80;3.17;;;;;;;;;;4993233;28;20924;-85
2023/07/02 01:31:57;;;;;;;4.40;2.47;;;;;;;;;;4993205;28;20460;-82
2023/07/02 01:34:23;;;;;;;3.70;1.70;;;;;;;;;;4991475;28;20441;-85
2023/07/02 01:36:49;;;;;;;6.17;1.53;;;;;;;;;;4993182;28;20917;-84
2023/07/02 01:39:15;;;;;;;4.50;1.80;;;;;;;;;;4991602;28;20480;-84
2023/07/02 01:41:45;;;;;;;5.67;2.00;;;;;;;;;;4993063;28;20186;-88
2023/07/02 01:44:11;;;;;;;2.67;1.30;;;;;;;;;;4992887;28;20412;-88
2023/07/02 01:46:37;;;;;;;4.07;2.00;;;;;;;;;;4992937;28;20976;-82
2023/07/02 01:49:03;;;;;;;3.40;2.03;;;;;;;;;;4992783;28;20240;-89
2023/07/02 01:51:29;;;;;;;2.80;1.77;;;;;;;;;;4991661;28;20410;-82
2023/07/02 01:53:55;;;;;;;5.00;2.30;;;;;;;;;;4992862;28;20423;-83
2023/07/02 01:56:21;;;;;;;5.57;2.47;;;;;;;;;;4992914;28;20530;-86
2023/07/02 01:58:47;;;;;;;7.63;2.43;;;;;;;;;;4992926;28;20183;-83
2023/07/02 02:01:12;;;;;;;3.70;2.27;;;;;;;;;;4992824;28;20473;-83
2023/07/02 02:03:38;;;;;;;4.73;2.07;;;;;;;;;;4996285;28;20744;-82
2023/07/02 02:06:04;;;;;;;4.67;1.97;;;;;;;;;;4996444;28;20565;-85
2023/07/02 02:08:30;;;;;;;5.23;2.00;;;;;;;;;;4996518;28;20224;-87
2023/07/02 02:10:56;;;;;;;5.90;2.20;;;;;;;;;;4996268;28;20772;-86
2023/07/02 02:13:22;;;;;;;5.97;2.40;;;;;;;;;;4996225;28;20904;-82
2023/07/02 02:15:48;;;;;;;4.83;2.20;;;;;;;;;;4996410;28;20914;-81
2023/07/02 02:18:14;;;;;;;6.03;2.07;;;;;;;;;;4996267;28;20181;-84
2023/07/02 02:20:41;;;;;;;5.60;1.40;;;;;;;;;;4995854;28;20221;-83
2023/07/02 02:23:07;;;;;;;8.17;2.37;;;;;;;;;;4996065;28;20180;-81
2023/07/02 02:25:33;;;;;;;5.07;2.53;;;;;;;;;;4996035;28;20790;-84
2023/07/02 02:27:59;;;;;;;8.13;2.53;;;;;;;;;;4996043;28;20416;-85
2023/07/02 02:30:25;;;;;;;4.50;2.40;;;;;;;;;;4994758;28;20487;-83
2023/07/02 02:32:51;;;;;;;5.20;1.97;;;;;;;;;;4995986;28;20416;-85
2023/07/02 02:35:17;;;;;;;4.63;2.47;;;;;;;;;;4994231;28;20932;-83
2023/07/02 02:37:43;;;;;;;4.57;1.83;;;;;;;;;;4995853;28;20177;-82
2023/07/02 02:40:09;;;;;;;3.50;2.40;;;;;;;;;;5005539;28;20682;-83
2023/07/02 02:42:36;;;;;;;9.90;3.17;;;;;;;;;;5015410;28;20181;-84
2023/07/02 02:45:02;;;;;;;5.10;2.90;;;;;;;;;;5015029;28;20421;-82
2023/07/02 02:47:28;;;;;;;2.97;2.40;;;;;;;;;;5013904;28;20529;-86
2023/07/02 02:49:53;;;;;;;4.70;2.53;;;;;;;;;;5014916;28;20420;-83
2023/07/02 02:52:19;;;;;;;4.20;2.53;;;;;;;;;;5015146;28;20412;-83
2023/07/02 02:54:46;;;;;;;6.30;3.00;;;;;;;;;;5014756;28;20631;-88
2023/07/02 02:57:13;;;;;;;4.50;2.53;;;;;;;;;;5014869;28;20197;-84
2023/07/02 02:59:39;;;;;;;8.80;3.50;;;;;;;;;;5015069;28;20463;-85
2023/07/02 03:02:05;;;;;;;3.40;2.20;;;;;;;;;;5014991;28;20826;-85
2023/07/02 03:04:31;;;;;;;7.53;2.90;;;;;;;;;;5014591;28;20407;-83
2023/07/02 03:06:57;;;;;;;4.63;1.93;;;;;;;;;;5014947;28;20423;-84
2023/07/02 03:09:25;;;;;;;7.13;1.93;;;;;;;;;;5013202;28;20465;-84
2023/07/02 03:11:51;;;;;;;6.70;2.70;;;;;;;;;;5014866;28;20432;-88
2023/07/02 03:14:17;;;;;;;5.93;2.80;;;;;;;;;;5014485;28;20415;-86
2023/07/02 03:16:45;;;;;;;3.70;1.80;;;;;;;;;;5014838;28;20673;-82
2023/07/02 03:19:15;;;;;;;2.50;1.90;;;;;;;;;;5014319;28;20408;-84
2023/07/02 03:21:42;;;;;;;4.27;2.40;;;;;;;;;;5013473;28;20486;-85
2023/07/02 03:24:11;;;;;;;5.33;2.30;;;;;;;;;;5014115;28;20420;-85
2023/07/02 03:26:37;;;;;;;6.30;2.00;;;;;;;;;;5013287;28;20928;-83
2023/07/02 03:29:03;;;;;;;5.40;2.33;;;;;;;;;;5013264;28;20518;-84
2023/07/02 03:31:29;;;;;;;3.80;2.33;;;;;;;;;;5013072;28;20166;-84
2023/07/02 03:33:55;;;;;;;7.40;2.80;;;;;;;;;;5013915;28;20901;-84
2023/07/02 03:36:21;;;;;;;4.30;2.30;;;;;;;;;;5014220;28;20188;-83
2023/07/02 03:38:46;;;;;;;4.73;2.20;;;;;;;;;;5014301;28;20629;-85
2023/07/02 03:41:12;;;;;;;6.57;2.20;;;;;;;;;;5014077;28;20220;-83
2023/07/02 03:43:38;;;;;;;4.80;2.47;;;;;;;;;;5014131;28;20784;-84
2023/07/02 03:46:04;;;;;;;8.40;3.07;;;;;;;;;;5013877;28;20204;-84
2023/07/02 03:48:30;;;;;;;5.97;2.00;;;;;;;;;;5012391;28;20559;-82
2023/07/02 03:50:56;;;;;;;5.20;2.30;;;;;;;;;;5014069;28;20842;-84
2023/07/02 03:53:22;;;;;;;3.83;1.63;;;;;;;;;;5013651;28;20468;-83
2023/07/02 03:55:48;;;;;;;5.20;2.60;;;;;;;;;;5014010;28;20204;-83
2023/07/02 03:58:14;;;;;;;5.73;3.10;;;;;;;;;;5014029;28;20173;-84
2023/07/02 04:00:41;;;;;;;6.03;2.73;;;;;;;;;;5012578;28;20500;-83
2023/07/02 04:03:07;;;;;;;6.50;2.40;;;;;;;;;;5013542;28;20435;-82
2023/07/02 04:05:33;;;;;;;6.03;2.23;;;;;;;;;;5013794;28;20415;-81
2023/07/02 04:07:59;;;;;;;4.80;2.83;;;;;;;;;;5013757;28;20546;-82
2023/07/02 04:10:25;;;;;;;7.83;2.80;;;;;;;;;;5013661;28;20692;-84
2023/07/02 04:12:54;;;;;;;5.80;2.90;;;;;;;;;;5012472;28;20416;-85
2023/07/02 04:15:19;;;;;;;3.93;1.90;;;;;;;;;;5013532;28;20573;-82
2023/07/02 04:17:45;;;;;;;7.27;3.83;;;;;;;;;;5013680;28;20411;-82
2023/07/02 04:20:11;;;;;;;4.17;2.87;;;;;;;;;;5013184;28;20274;-84
2023/07/02 04:22:37;;;;;;;5.90;3.00;;;;;;;;;;5012233;28;20180;-84
2023/07/02 04:25:04;;;;;;;11.33;2.47;;;;;;;;;;5011739;28;20445;-82
2023/07/02 04:27:29;;;;;;;10.63;2.67;;;;;;;;;;5013412;28;20429;-87
2023/07/02 04:29:55;;;;;;;4.23;1.73;;;;;;;;;;5013450;28;20420;-88
2023/07/02 04:32:21;;;;;;;4.83;2.47;;;;;;;;;;5012179;28;20582;-84
2023/07/02 04:34:47;;;;;;;6.03;3.00;;;;;;;;;;5013041;28;20443;-83
2023/07/02 04:37:15;;;;;;;6.27;3.50;;;;;;;;;;5013346;28;20184;-85
2023/07/02 04:39:40;;;;;;;7.30;2.53;;;;;;;;;;5013403;28;20459;-85
2023/07/02 04:42:07;;;;;;;5.77;2.97;;;;;;;;;;5013223;28;20413;-85
2023/07/02 04:44:32;;;;;;;4.93;2.83;;;;;;;;;;5011915;28;20263;-85
2023/07/02 04:46:59;;;;;;;8.43;2.90;;;;;;;;;;5011837;28;20444;-83
2023/07/02 04:49:25;;;;;;;5.67;3.17;;;;;;;;;;5012730;28;20316;-86
2023/07/02 04:51:53;;;;;;;12.40;2.77;;;;;;;;;;5013336;28;20460;-85
2023/07/02 04:54:19;;;;;;;5.90;3.20;;;;;;;;;;5013127;28;20495;-83
2023/07/02 04:56:45;;;;;;;6.30;3.33;;;;;;;;;;5012951;28;20542;-84
2023/07/02 04:59:11;;;;;;;12.13;3.80;;;;;;;;;;5012856;28;20448;-85
2023/07/02 05:01:37;;;;;;;6.20;2.83;;;;;;;;;;5012976;28;20501;-86
2023/07/02 05:04:02;;;;;;;11.10;4.03;;;;;;;;;;5012639;28;20174;-82
2023/07/02 05:06:28;;;;;;;9.40;3.27;;;;;;;;;;5012966;28;21279;-83
2023/07/02 05:08:54;;;;;;;7.13;3.07;;;;;;;;;;5011433;28;20422;-83
2023/07/02 05:11:20;;;;;;;9.47;3.57;;;;;;;;;;5012794;28;20184;-86
2023/07/02 05:13:49;;;;;;;10.50;4.57;;;;;;;;;;5012847;28;20173;-83
2023/07/02 05:16:15;;;;;;;13.13;3.83;;;;;;;;;;4999926;28;20562;-84
2023/07/02 05:18:41;;;;;;;8.80;3.80;;;;;;;;;;4992807;28;20421;-85
2023/07/02 05:21:07;;;;;;;11.47;4.10;;;;;;;;;;5008076;28;20485;-84
2023/07/02 05:23:32;;;;;;;9.43;3.77;;;;;;;;;;4993037;28;20182;-82
2023/07/02 05:25:58;;;;;;;9.70;3.93;;;;;;;;;;5008145;28;20492;-86
2023/07/02 05:28:25;;;;;;;12.17;4.80;;;;;;;;;;5008141;28;20224;-85
2023/07/02 05:30:51;;;;;;;9.23;3.90;;;;;;;;;;4992911;28;20261;-82
2023/07/02 05:33:17;;;;;;;8.07;3.83;;;;;;;;;;5007647;28;20820;-86
2023/07/02 05:35:42;;;;;;;8.93;3.60;;;;;;;;;;5008210;28;20455;-84
2023/07/02 05:38:08;;;;;;;9.90;4.00;;;;;;;;;;4996511;28;20412;-84
2023/07/02 05:40:34;;;;;;;12.63;4.07;;;;;;;;;;5011922;28;20579;-83
2023/07/02 05:43:00;;;;;;;12.27;4.80;;;;;;;;;;4996854;28;20465;-84
2023/07/02 05:45:27;;;;;;;8.67;3.80;;;;;;;;;;5011865;28;20194;-84
2023/07/02 05:47:53;;;;;;;10.93;4.57;;;;;;;;;;4996598;28;20423;-83
2023/07/02 05:50:19;;;;;;;12.10;4.63;;;;;;;;;;4996692;28;20423;-84
2023/07/02 05:52:45;;;;;;;11.67;4.37;;;;;;;;;;4996810;28;20415;-80
2023/07/02 05:55:11;;;;;;;11.17;3.73;;;;;;;;;;4996469;28;20204;-86
2023/07/02 05:57:37;;;;;;;8.90;4.13;;;;;;;;;;4996618;28;20257;-83
2023/07/02 06:00:05;;;;;;;11.60;5.33;;;;;;;;;;5004615;28;20935;-85
2023/07/02 06:02:31;;;;;;;16.00;3.87;;;;;;;;;;5015495;28;20424;-84
2023/07/02 06:04:57;;;;;;;16.07;5.00;;;;;;;;;;5015472;28;20417;-84
2023/07/02 06:07:23;;;;;;;13.40;4.40;;;;;;;;;;5016219;28;20420;-84
2023/07/02 06:09:49;;;;;;;13.27;4.00;;;;;;;;;;5015655;28;20468;-87
2023/07/02 06:12:15;;;;;;;15.23;5.23;;;;;;;;;;5016330;28;20435;-86
2023/07/02 06:14:41;;;;;;;10.13;4.33;;;;;;;;;;5014973;28;20476;-86
2023/07/02 06:17:08;;;;;;;12.43;4.60;;;;;;;;;;5014913;28;20176;-86
2023/07/02 06:19:34;;;;;;;15.13;4.60;;;;;;;;;;5015689;28;20180;-85
2023/07/02 06:22:00;;;;;;;14.97;4.33;;;;;;;;;;5015203;28;20424;-86
2023/07/02 06:24:26;;;;;;;12.80;5.80;;;;;;;;;;5015927;28;20413;-84
2023/07/02 06:26:52;;;;;;;13.00;5.13;;;;;;;;;;5016124;28;20426;-86
2023/07/02 06:29:18;;;;;;;12.70;4.80;;;;;;;;;;5016110;28;20193;-84
2023/07/02 06:31:43;;;;;;;14.73;5.47;;;;;;;;;;5016041;28;20414;-85
2023/07/02 06:34:09;;;;;;;12.90;4.63;;;;;;;;;;5015497;28;20538;-84
2023/07/02 06:36:35;;;;;;;11.60;4.37;;;;;;;;;;5015930;28;20206;-83
2023/07/02 06:39:01;;;;;;;19.70;4.93;;;;;;;;;;5015781;28;20546;-85
2023/07/02 06:41:27;;;;;;;8.27;4.67;;;;;;;;;;5015895;28;20562;-89
2023/07/02 06:43:53;;;;;;;11.20;5.03;;;;;;;;;;5015790;28;20809;-85
2023/07/02 06:46:19;;;;;;;10.60;4.03;;;;;;;;;;5015704;28;20504;-86
2023/07/02 06:48:45;;;;;;;9.27;4.00;;;;;;;;;;5014723;28;20178;-85
2023/07/02 06:51:14;;;;;;;12.70;5.13;;;;;;;;;;5015594;28;20422;-85
2023/07/02 06:53:40;;;;;;;12.23;4.23;;;;;;;;;;5015589;28;20517;-85
2023/07/02 06:56:08;;;;;;;17.10;5.73;;;;;;;;;;5014342;28;20509;-86
2023/07/02 06:58:34;;;;;;;11.43;4.27;;;;;;;;;;5015424;28;20460;-85
2023/07/02 07:01:00;;;;;;;12.70;5.33;;;;;;;;;;5014073;28;20481;-85
2023/07/02 07:03:25;;;;;;;11.90;5.37;;;;;;;;;;5015008;28;20229;-88
2023/07/02 07:05:51;;;;;;;10.60;4.90;;;;;;;;;;5015276;28;20435;-85
2023/07/02 07:08:17;;;;;;;10.93;5.13;;;;;;;;;;5015240;28;21026;-83
2023/07/02 07:10:45;;;;;;;14.33;4.80;;;;;;;;;;5013858;28;20229;-86
2023/07/02 07:13:11;;;;;;;10.40;4.00;;;;;;;;;;5015201;28;20184;-84
2023/07/02 07:15:36;;;;;;;11.73;5.30;;;;;;;;;;4982622;28;20439;-82
2023/07/02 07:18:03;;;;;;;11.67;4.27;;;;;;;;;;5009769;28;20556;-85
2023/07/02 07:20:29;;;;;;;10.27;4.60;;;;;;;;;;4994967;28;20211;-82
2023/07/02 07:22:55;;;;;;;13.83;5.77;;;;;;;;;;4995090;28;20962;-81
2023/07/02 07:25:21;;;;;;;14.10;5.23;;;;;;;;;;4994823;28;20485;-83
2023/07/02 07:27:47;;;;;;;13.63;5.50;;;;;;;;;;4994977;28;20184;-84
2023/07/02 07:30:14;;;;;;;11.20;4.70;;;;;;;;;;4994764;28;20220;-85
2023/07/02 07:32:40;;;;;;;16.60;5.87;;;;;;;;;;4994543;28;20262;-84
2023/07/02 07:35:06;;;;;;;12.20;5.07;;;;;;;;;;5010005;28;20908;-86
2023/07/02 07:37:32;;;;;;;7.43;4.60;;;;;;;;;;5010088;28;20517;-83
2023/07/02 07:39:58;;;;;;;12.60;5.10;;;;;;;;;;4995003;28;20545;-84
2023/07/02 07:42:24;;;;;;;11.43;4.67;;;;;;;;;;5009993;28;20535;-85
2023/07/02 07:44:50;;;;;;;10.33;4.50;;;;;;;;;;4995040;28;20177;-85
2023/07/02 07:47:16;;;;;;;12.90;5.67;;;;;;;;;;4994889;28;20220;-85
2023/07/02 07:49:42;;;;;;;12.07;4.73;;;;;;;;;;4994151;28;20175;-83
2023/07/02 07:52:08;;;;;;;8.23;4.67;;;;;;;;;;4994867;28;20439;-85
2023/07/02 07:54:35;;;;;;;12.57;5.20;;;;;;;;;;4993813;28;20415;-86
2023/07/02 07:57:01;;;;;;;15.57;5.00;;;;;;;;;;4994646;28;20423;-88
2023/07/02 07:59:27;;;;;;;9.30;4.70;;;;;;;;;;4978666;28;20427;-86
2023/07/02 08:01:52;;;;;;;10.63;4.73;;;;;;;;;;4994417;28;20218;-91
2023/07/02 08:04:18;;;;;;;10.07;5.10;;;;;;;;;;5008878;28;20174;-85
2023/07/02 08:06:44;;;;;;;9.20;4.33;;;;;;;;;;4994210;28;20698;-82
2023/07/02 08:09:11;;;;;;;11.50;4.70;;;;;;;;;;4994056;28;20169;-83
2023/07/02 08:11:37;;;;;;;10.20;5.00;;;;;;;;;;5013757;28;20421;-85
2023/07/02 08:14:03;;;;;;;8.30;3.90;;;;;;;;;;5013787;28;20430;-83
2023/07/02 08:16:28;;;;;;;9.43;4.30;;;;;;;;;;5013618;28;20260;-82
2023/07/02 08:18:54;;;;;;;9.87;4.27;;;;;;;;;;5013197;28;20417;-85
2023/07/02 08:21:20;;;;;;;10.80;4.57;;;;;;;;;;5013397;28;20590;-83
2023/07/02 08:23:52;;;;;;;8.20;4.00;;;;;;;;;;5013363;28;20178;-84
2023/07/02 08:26:18;;;;;;;7.73;4.10;;;;;;;;;;5013592;28;20179;-82
2023/07/02 08:28:44;;;;;;;10.13;4.63;;;;;;;;;;5012227;28;20915;-83
2023/07/02 08:31:10;;;;;;;7.13;3.43;;;;;;;;;;5012025;28;20433;-86
2023/07/02 08:33:36;;;;;;;8.50;4.27;;;;;;;;;;5013086;28;20168;-86
2023/07/02 08:36:02;;;;;;;7.47;3.37;;;;;;;;;;5011954;28;20183;-85
2023/07/02 08:38:28;;;;;;;7.20;3.93;;;;;;;;;;5012092;28;20528;-83
2023/07/02 08:40:54;;;;;;;10.83;4.07;;;;;;;;;;5013314;28;20572;-84
2023/07/02 08:43:20;;;;;;;9.23;4.07;;;;;;;;;;5011992;28;20175;-83
2023/07/02 08:45:46;;;;;;;7.97;4.13;;;;;;;;;;5013096;28;20563;-82
2023/07/02 08:48:12;;;;;;;8.47;3.83;;;;;;;;;;5011333;28;20484;-83
2023/07/02 08:50:38;;;;;;;7.10;3.33;;;;;;;;;;5013271;28;20917;-81
2023/07/02 08:53:04;;;;;;;9.33;3.50;;;;;;;;;;5011921;28;20444;-84
2023/07/02 08:55:30;;;;;;;8.57;3.33;;;;;;;;;;5011626;28;20428;-84
2023/07/02 08:58:02;;;;;;;4.50;2.47;;;;;;;;;;5013236;28;20188;-87
2023/07/02 09:00:31;;;;;;;7.20;3.10;;;;;;;;;;5013186;28;20879;-84
2023/07/02 09:02:56;;;;;;;12.47;4.10;;;;;;;;;;5012591;28;20445;-81
2023/07/02 09:05:25;;;;;;;7.60;2.83;;;;;;;;;;4999808;28;20475;-86
2023/07/02 09:07:52;;;;;;;5.60;3.30;;;;;;;;;;4986641;28;20628;-88
2023/07/02 09:10:31;;;;;;;7.20;2.90;;;;;;;;;;4992848;28;20931;-84
2023/07/02 09:13:03;;;;;;;4.23;2.10;;;;;;;;;;4993315;28;20419;-85
2023/07/02 09:15:35;;;;;;;7.33;3.57;;;;;;;;;;4993139;28;20406;-87
2023/07/02 09:18:01;;;;;;;7.03;3.20;;;;;;;;;;4992899;28;20458;-86
2023/07/02 09:20:33;;;;;;;6.50;2.87;;;;;;;;;;5004735;28;20493;-86
2023/07/02 09:22:59;;;;;;;6.20;2.23;;;;;;;;;;5013000;28;20241;-84
2023/07/02 09:25:34;;;;;;;7.20;2.40;;;;;;;;;;5011428;28;20907;-88
2023/07/02 09:28:00;;;;;;;7.80;2.93;;;;;;;;;;5012821;28;20212;-85
2023/07/02 09:30:26;;;;;;;4.37;2.17;;;;;;;;;;5011753;28;20422;-81
2023/07/02 09:32:54;;;;;;;6.80;2.70;;;;;;;;;;5011413;28;20625;-85
2023/07/02 09:35:19;;;;;;;6.47;3.80;;;;;;;;;;5012895;28;20174;-85
2023/07/02 09:37:46;;;;;;;6.33;3.03;;;;;;;;;;5012692;28;20416;-87
2023/07/02 09:40:12;;;;;;;6.60;2.27;;;;;;;;;;5012640;28;20259;-87
2023/07/02 09:42:40;;;;;;;12.60;3.30;;;;;;;;;;5012792;28;20422;-85
2023/07/02 09:45:08;;;;;;;12.73;3.43;;;;;;;;;;5011456;28;20428;-84
2023/07/02 09:47:35;;;;;;;8.77;4.13;;;;;;;;;;5012248;28;20417;-86
2023/07/02 09:50:08;;;;;;;7.37;3.30;;;;;;;;;;5012749;28;20959;-86
2023/07/02 09:52:34;;;;;;;10.87;3.70;;;;;;;;;;5012776;28;20768;-85
2023/07/02 09:55:00;;;;;;;10.10;3.20;;;;;;;;;;5004208;28;20438;-86
2023/07/02 09:57:28;;;;;;;8.43;2.70;;;;;;;;;;4991712;28;20430;-84
2023/07/02 09:59:54;;;;;;;6.97;3.03;;;;;;;;;;4991656;28;20528;-88
2023/07/02 10:02:20;;;;;;;6.10;2.90;;;;;;;;;;4989917;28;20480;-88
2023/07/02 10:04:47;;;;;;;7.83;2.43;;;;;;;;;;4993112;28;20416;-86
2023/07/02 10:07:14;;;;;;;7.17;2.83;;;;;;;;;;4992897;28;20429;-86
2023/07/02 10:09:44;;;;;;;10.90;3.30;;;;;;;;;;5007760;28;20490;-87
2023/07/02 10:12:20;;;;;;;8.57;3.27;;;;;;;;;;4992899;28;20777;-87
2023/07/02 10:14:48;;;;;;;5.70;3.60;;;;;;;;;;4992787;28;20468;-87
2023/07/02 10:17:24;;;;;;;6.10;3.03;;;;;;;;;;5007569;28;20524;-89
2023/07/02 10:19:54;;;;;;;9.87;3.23;;;;;;;;;;4992609;28;20409;-87
2023/07/02 10:22:20;;;;;;;6.17;3.60;;;;;;;;;;5008233;28;20500;-88
2023/07/02 10:24:53;;;;;;;6.93;3.60;;;;;;;;;;4996462;28;20993;-89
2023/07/02 10:27:19;;;;;;;9.73;3.30;;;;;;;;;;4996586;28;20419;-85
2023/07/02 10:29:51;;;;;;;6.67;2.60;;;;;;;;;;4996028;28;20430;-85
2023/07/02 10:32:27;;;;;;;5.80;2.93;;;;;;;;;;4996016;28;20421;-88
2023/07/02 10:34:53;;;;;;;5.23;1.80;;;;;;;;;;5011574;28;20415;-86
2023/07/02 10:37:22;;;;;;;4.50;1.97;;;;;;;;;;4996419;28;20422;-86
2023/07/02 10:39:48;;;;;;;6.47;2.20;;;;;;;;;;4998667;28;20179;-87
2023/07/02 10:42:14;;;;;;;4.10;1.87;;;;;;;;;;5010595;28;20437;-87
2023/07/02 10:44:53;;;;;;;6.30;2.33;;;;;;;;;;4994247;28;20800;-86
2023/07/02 10:47:19;;;;;;;7.90;2.13;;;;;;;;;;4994311;28;20431;-86
2023/07/02 10:49:46;;;;;;;5.07;1.90;;;;;;;;;;4995755;28;20410;-87
2023/07/02 10:52:12;;;;;;;5.33;2.17;;;;;;;;;;4991744;28;20433;-87
2023/07/02 10:54:40;;;;;;;8.17;2.50;;;;;;;;;;4995739;28;20416;-85
2023/07/02 10:57:07;;;;;;;5.53;2.20;;;;;;;;;;4995149;28;20438;-86
2023/07/02 10:59:33;;;;;;;5.67;1.60;;;;;;;;;;5011113;28;20475;-89
2023/07/02 11:02:02;;;;;;;4.50;1.80;;;;;;;;;;4995669;28;20468;-88
2023/07/02 11:04:28;;;;;;;4.57;1.90;;;;;;;;;;4995889;28;20470;-90
2023/07/02 11:06:55;;;;;;;3.87;1.57;;;;;;;;;;4995847;28;20888;-90
2023/07/02 11:09:21;;;;;;;3.60;1.43;;;;;;;;;;4995461;28;20479;-87
2023/07/02 11:12:00;;;;;;;3.77;1.53;;;;;;;;;;4991772;28;21013;-84
2023/07/02 11:14:33;;;;;;;5.37;1.80;;;;;;;;;;4976170;28;20178;-86
2023/07/02 11:17:02;;;;;;;3.93;1.67;;;;;;;;;;4975932;28;20416;-86
2023/07/02 11:19:30;;;;;;;3.20;1.50;;;;;;;;;;4991804;28;20426;-90
2023/07/02 11:21:57;;;;;;;6.20;2.23;;;;;;;;;;4975738;28;20479;-87
2023/07/02 11:24:31;;;;;;;5.40;1.87;;;;;;;;;;4976049;28;20900;-88
2023/07/02 11:26:57;;;;;;;8.57;2.43;;;;;;;;;;4990641;28;20916;-85
2023/07/02 11:29:23;;;;;;;5.63;1.57;;;;;;;;;;4975550;28;20423;-87
2023/07/02 11:31:49;;;;;;;4.23;1.53;;;;;;;;;;4975304;28;20494;-86
2023/07/02 11:34:18;;;;;;;2.80;1.60;;;;;;;;;;4975448;28;21029;-85
2023/07/02 11:36:44;;;;;;;4.73;1.67;;;;;;;;;;4975528;28;20408;-88
2023/07/02 11:39:10;;;;;;;5.40;1.43;;;;;;;;;;4990419;28;20434;-87
2023/07/02 11:41:41;;;;;;;4.60;1.50;;;;;;;;;;4992064;28;20486;-88
2023/07/02 11:44:07;;;;;;;3.80;1.50;;;;;;;;;;4995006;28;20433;-87
2023/07/02 11:46:33;;;;;;;5.10;1.70;;;;;;;;;;4995058;28;20423;-84
2023/07/02 11:49:00;;;;;;;4.00;1.33;;;;;;;;;;4994813;28;20493;-85
2023/07/02 11:51:26;;;;;;;6.67;1.37;;;;;;;;;;4996125;28;20903;-85
2023/07/02 11:53:52;;;;;;;2.67;0.90;;;;;;;;;;5014030;28;20486;-85
2023/07/02 11:56:18;;;;;;;8.93;3.50;;;;;;;;;;5014595;28;20274;-87
2023/07/02 11:58:44;;;;;;;4.67;0.93;;;;;;;;;;5007223;28;20494;-87
2023/07/02 12:01:10;;;;;;;3.17;1.10;;;;;;;;;;4995576;28;20675;-87
2023/07/02 12:03:36;;;;;;;3.50;0.67;;;;;;;;;;5006188;28;20955;-88
2023/07/02 12:06:02;;;;;;;3.33;1.40;;;;;;;;;;5014314;28;20261;-87
2023/07/02 12:08:28;;;;;;;4.63;1.57;;;;;;;;;;5012416;28;20254;-83
2023/07/02 12:10:53;;;;;;;4.17;1.00;;;;;;;;;;4994405;28;20475;-87
2023/07/02 12:13:22;;;;;;;4.00;1.07;;;;;;;;;;5009547;28;20501;-85
2023/07/02 12:15:51;;;;;;;2.90;1.03;;;;;;;;;;4994379;28;20449;-83
2023/07/02 12:18:16;;;;;;;4.97;1.33;;;;;;;;;;4994083;28;21038;-82
2023/07/02 12:20:46;;;;;;;4.67;1.00;;;;;;;;;;4994234;28;20576;-83
2023/07/02 12:23:12;;;;;;;4.50;0.93;;;;;;;;;;4994221;28;20182;-83
2023/07/02 12:25:38;;;;;;;3.80;1.30;;;;;;;;;;4994409;28;20464;-86
2023/07/02 12:28:05;;;;;;;6.30;1.27;;;;;;;;;;4994392;28;20965;-87
2023/07/02 12:30:31;;;;;;;3.43;0.50;;;;;;;;;;5009226;28;20433;-90
2023/07/02 12:32:57;;;;;;;2.87;1.23;;;;;;;;;;5009165;28;20409;-89
2023/07/02 12:35:23;;;;;;;4.00;2.00;;;;;;;;;;4994532;28;20421;-87
2023/07/02 12:37:56;;;;;;;3.60;1.30;;;;;;;;;;4994312;28;20418;-89
2023/07/02 12:40:24;;;;;;;6.43;1.37;;;;;;;;;;4993325;28;20473;-87
2023/07/02 12:42:50;;;;;;;4.40;0.90;;;;;;;;;;4994081;28;20421;-87
2023/07/02 12:45:16;;;;;;;4.03;0.60;;;;;;;;;;4993545;28;20498;-90
2023/07/02 12:47:43;;;;;;;5.53;1.80;;;;;;;;;;5008676;28;20433;-85
2023/07/02 12:50:10;;;;;;;3.37;1.17;;;;;;;;;;4993729;28;20512;-84
2023/07/02 12:52:36;;;;;;;3.73;1.20;;;;;;;;;;5008928;28;20430;-86
2023/07/02 12:55:02;;;;;;;2.97;1.10;;;;;;;;;;4994010;28;20513;-85
2023/07/02 12:57:28;;;;;;;5.70;1.30;;;;;;;;;;4993808;28;20458;-84
2023/07/02 12:59:54;;;;;;;5.13;0.63;;;;;;;;;;5008857;28;20463;-83
2023/07/02 13:02:21;;;;;;;6.73;1.30;;;;;;;;;;4993443;28;20513;-88
2023/07/02 13:04:47;;;;;;;5.47;1.53;;;;;;;;;;5002595;28;20478;-83
2023/07/02 13:07:13;;;;;;;3.53;1.10;;;;;;;;;;5013336;28;20425;-88
2023/07/02 13:09:39;;;;;;;5.10;1.60;;;;;;;;;;5013049;28;20221;-88
2023/07/02 13:12:05;;;;;;;7.60;1.63;;;;;;;;;;5013112;28;20409;-85
2023/07/02 13:14:31;;;;;;;4.00;0.97;;;;;;;;;;5012976;28;20225;-81
2023/07/02 13:16:59;;;;;;;5.03;1.00;;;;;;;;;;5012830;28;20406;-85
2023/07/02 13:19:27;;;;;;;4.03;1.07;;;;;;;;;;5013387;28;20658;-86
2023/07/02 13:21:53;;;;;;;3.60;0.83;;;;;;;;;;5013519;28;20480;-86
2023/07/02 13:24:22;;;;;;;4.40;1.47;;;;;;;;;;5013380;28;20763;-87
2023/07/02 13:26:48;;;;;;;7.90;1.83;;;;;;;;;;5013409;28;20175;-88
2023/07/02 13:29:14;;;;;;;2.60;0.67;;;;;;;;;;5013509;28;20414;-86
2023/07/02 13:31:40;;;;;;;4.63;1.30;;;;;;;;;;5013130;28;20657;-87
2023/07/02 13:34:06;;;;;;;4.97;1.10;;;;;;;;;;5012142;28;20418;-86
2023/07/02 13:36:34;;;;;;;4.17;1.27;;;;;;;;;;5011833;28;20973;-88
2023/07/02 13:39:00;;;;;;;4.50;0.60;;;;;;;;;;5012051;28;20178;-87
2023/07/02 13:41:26;;;;;;;6.13;1.10;;;;;;;;;;5012988;28;20481;-86
2023/07/02 13:43:52;;;;;;;3.93;1.17;;;;;;;;;;5013079;28;20268;-89
2023/07/02 13:46:17;;;;;;;4.90;0.83;;;;;;;;;;5013072;28;20589;-89
2023/07/02 13:48:43;;;;;;;4.00;1.37;;;;;;;;;;5012703;28;20179;-85
2023/07/02 13:51:09;;;;;;;3.50;0.93;;;;;;;;;;5013386;28;20175;-88
2023/07/02 13:53:35;;;;;;;3.57;0.90;;;;;;;;;;5013272;28;20535;-87
2023/07/02 13:56:01;;;;;;;4.53;1.10;;;;;;;;;;5013135;28;20179;-87
2023/07/02 13:58:29;;;;;;;6.17;1.00;;;;;;;;;;5015102;28;20933;-89
2023/07/02 14:00:54;;;;;;;2.90;0.80;;;;;;;;;;5015579;28;20476;-87
2023/07/02 14:03:20;;;;;;;4.70;1.50;;;;;;;;;;5016580;28;20496;-86
2023/07/02 14:05:46;;;;;;;6.50;1.60;;;;;;;;;;5016539;28;20170;-91
2023/07/02 14:08:12;;;;;;;10.90;1.40;;;;;;;;;;5015322;28;20192;-86
2023/07/02 14:10:38;;;;;;;3.17;0.93;;;;;;;;;;5016403;28;20266;-89
2023/07/02 14:13:05;;;;;;;2.67;1.00;;;;;;;;;;5016713;28;20261;-92
2023/07/02 14:15:31;;;;;;;3.50;0.80;;;;;;;;;;5016505;28;20208;-88
2023/07/02 14:17:57;;;;;;;3.40;1.13;;;;;;;;;;5015861;28;20504;-85
2023/07/02 14:20:29;;;;;;;5.73;1.17;;;;;;;;;;5014983;28;20474;-85
2023/07/02 14:22:55;;;;;;;5.30;1.20;;;;;;;;;;5016418;28;20528;-84
2023/07/02 14:25:20;;;;;;;3.13;1.00;;;;;;;;;;5016022;28;20420;-88
2023/07/02 14:27:46;;;;;;;4.33;0.90;;;;;;;;;;5016172;28;20188;-89
2023/07/02 14:30:12;;;;;;;5.70;1.60;;;;;;;;;;5016198;28;20175;-87
2023/07/02 14:32:39;;;;;;;3.63;1.53;;;;;;;;;;5016111;28;20272;-87
2023/07/02 14:35:08;;;;;;;4.90;0.70;;;;;;;;;;5005749;28;20430;-89
2023/07/02 14:37:34;;;;;;;2.97;0.87;;;;;;;;;;4996430;28;20813;-83